Providence, New York
Current Conditions -  °F | °C
As of 11:35 PM on Wednesday 26 Nov 2014 (Local Time) from KNY0 Reporting Station
Overcast Overcast  
Wind Chill: 29°   Ceiling: 500
Heat Index: 29°   Visibility: 1.2mi
Dew Point: 28°   Wind: 0mph
Humidity: 97%   Direction: NA
Pressure: 29.88"   Gusts: NA
Location:  43.1097°N, 74.0176°W
Report Text: KNY0 270435Z AUTO 00000KT 1 1/4SM BKN005 OVC010 M02/M02 A2988 RMK AO2 P0002 T10161020
Loading
Personal Weather Stations






























Interactive Weather Map New forecast layout! Learn more

10-Day Weather Forecast

Advertisements
Track Severe Weather on mobile